Flight Track Log - Related Links

Times and Time Zones

All times are in EDT time to prevent confusion due to time zone crossing. See the SWA920 flight status page for this flight to view local times or setup timezone preferences in your user account.

Time Position Orientation Groundspeed Altitude Reporting Facility
EDT Latitude Longitude Course Direction KTS MPH feet Rate Location/Type
Tue 05:47:56 PM 36.0833 -86.6833 180° South 170 196 2,100  Level Nashville TRACON
Tue 05:48:56 PM 36.0667 -86.6167 107° East 238 274 4,800 3,195 Climbing Nashville TRACON
Tue 05:50:45 PM 36.0661 -86.4617 90° East 303 349 11,100 3,266 Climbing Memphis Center
Tue 05:51:45 PM 36.0686 -86.3461 88° East 319 367 14,000 3,150 Climbing Memphis Center
Tue 05:52:45 PM 36.0686 -86.2150 90° East 337 388 17,400 3,150 Climbing Memphis Center
Tue 05:53:45 PM 36.0703 -86.0867 89° East 357 411 20,300 2,495 Climbing Memphis Center
Tue 05:56:07 PM 36.0481 -85.7800 95° East 388 447 25,800 2,257 Climbing Atlanta Center
Tue 05:57:07 PM 36.0375 -85.6333 95° East 410 472 27,900 1,900 Climbing Atlanta Center
Tue 05:58:07 PM 36.0269 -85.4817 95° East 427 491 29,600 1,450 Climbing Atlanta Center
Tue 05:59:07 PM 36.0161 -85.3247 95° East 442 509 30,800 850 Climbing Atlanta Center
Tue 06:00:07 PM 36.0053 -85.1681 95° East 453 521 31,300 950 Climbing Atlanta Center
Tue 06:01:07 PM 35.9689 -85.0214 107° East 438 504 32,700 1,000 Climbing Atlanta Center
Tue 06:02:07 PM 35.8633 -84.9022 138° Southeast 430 495 33,300 150 Climbing Atlanta Center
Tue 06:03:07 PM 35.7639 -84.7964 139° Southeast 447 514 33,000 -150 Descending Atlanta Center
Tue 06:04:07 PM 35.6686 -84.6931 139° Southeast 459 528 33,000  Level Atlanta Center
Tue 06:05:07 PM 35.5711 -84.5903 139° Southeast 465 535 33,000  Level Atlanta Center
Tue 06:06:07 PM 35.4756 -84.4850 138° Southeast 465 535 33,000 500 Level Atlanta Center
Tue 06:07:07 PM 35.3778 -84.3800 139° Southeast 465 535 34,000 1,000 Climbing Atlanta Center
Tue 06:08:07 PM 35.2736 -84.2703 139° Southeast 470 541 35,000 500 Climbing Atlanta Center
Tue 06:09:07 PM 35.1717 -84.1608 139° Southeast 477 549 35,000  Level Atlanta Center
Tue 06:10:07 PM 35.0653 -84.0489 139° Southeast 483 556 35,000 600 Level Atlanta Center
Tue 06:11:07 PM 34.9608 -83.9375 139° Southeast 493 567 36,200 1,000 Climbing Atlanta Center
Tue 06:12:07 PM 34.8667 -83.8058 131° Southeast 499 574 37,000 400 Climbing Atlanta Center
Tue 06:13:07 PM 34.7767 -83.6722 129° Southeast 515 593 37,000 -450 Level Atlanta Center
Tue 06:14:07 PM 34.6908 -83.5511 131° Southeast 521 600 36,100 -1,400 Descending Atlanta Center
Tue 06:15:07 PM 34.5878 -83.4031 130° Southeast 521 600 34,200 -2,100 Descending Atlanta Center
Tue 06:16:07 PM 34.4953 -83.2725 131° Southeast 515 593 31,900 -1,600 Descending Atlanta Center
Tue 06:17:07 PM 34.4108 -83.1500 130° Southeast 494 568 31,000 -600 Descending Atlanta Center
Tue 06:18:07 PM 34.3244 -83.0275 130° Southeast 473 544 30,700 -750 Descending Atlanta Center
Tue 06:19:07 PM 34.2400 -82.9106 131° Southeast 473 544 29,500 -850 Descending Atlanta Center
Tue 06:20:07 PM 34.1678 -82.8061 130° Southeast 468 539 29,000 -250 Descending Atlanta Center
Tue 06:21:07 PM 34.0853 -82.6919 131° Southeast 456 525 29,000  Level Atlanta Center
Tue 06:22:07 PM 34.0089 -82.5828 130° Southeast 443 510 29,000  Level Atlanta Center
Tue 06:23:07 PM 33.9303 -82.4689 130° Southeast 438 504 29,000  Level Atlanta Center
Tue 06:24:07 PM 33.8494 -82.3606 132° Southeast 443 510 29,000 -506 Level Atlanta Center
Tue 06:27:04 PM 33.6517 -81.9919 123° Southeast 405 466 27,000 -506 Descending Jacksonville Center
Tue 06:28:04 PM 33.6111 -81.8600 110° East 416 479 27,000  Level Jacksonville Center
Tue 06:29:04 PM 33.5744 -81.7383 110° East 429 494 27,000 -250 Level Jacksonville Center
Tue 06:30:04 PM 33.5314 -81.6019 111° Southeast 429 494 26,500 -750 Descending Jacksonville Center
Tue 06:31:04 PM 33.4903 -81.4706 111° Southeast 429 494 25,500 -1,250 Descending Jacksonville Center
Tue 06:32:04 PM 33.4428 -81.3294 112° Southeast 424 488 24,000 -750 Descending Jacksonville Center
Tue 06:33:04 PM 33.4036 -81.2031 110° East 407 468 24,000 -600 Level Jacksonville Center
Tue 06:34:04 PM 33.3622 -81.0772 111° Southeast 407 468 22,800 -1,950 Descending Jacksonville Center
Tue 06:35:04 PM 33.3206 -80.9486 111° Southeast 407 468 20,100 -2,550 Descending Jacksonville Center
Tue 06:36:04 PM 33.2811 -80.8253 111° Southeast 407 468 17,700 -2,550 Descending Jacksonville Center
Tue 06:37:04 PM 33.2414 -80.7047 111° Southeast 401 461 15,000 -2,750 Descending Jacksonville Center
Tue 06:38:04 PM 33.2039 -80.5864 111° Southeast 390 449 12,200 -2,250 Descending Jacksonville Center
Tue 06:39:04 PM 33.1664 -80.4731 112° Southeast 385 443 10,500 -1,400 Descending Jacksonville Center
Tue 06:41:04 PM 33.0350 -80.3775 149° Southeast 292 336 8,000 -1,433 Descending Jacksonville Center
Tue 06:42:04 PM 32.9631 -80.3350 154° Southeast 292 336 6,200 -1,650 Descending Jacksonville Center
Tue 06:43:04 PM 32.8953 -80.2875 150° Southeast 286 329 4,700 -1,250 Descending Jacksonville Center
Tue 06:44:04 PM 32.8544 -80.2244 128° Southeast 248 285 3,700 -1,000 Descending Jacksonville Center
Tue 06:45:04 PM 32.8261 -80.1708 122° Southeast 230 265 2,700 -1,000 Descending Jacksonville Center
Tue 06:47:00 PM 32.8833 -80.0333 79° East  Level FlightAware Approximate
Tue 06:54:00 PM 32.8986 -80.0405 79° East  Level Estimated
Tue 06:55:00 PM 32.8986 -80.0405 79° East  Level Estimated
Tue 06:56:00 PM 32.8986 -80.0405 79° East  Level Estimated
Tue 06:57:00 PM 32.8986 -80.0405 79° East  Level Estimated

Login

Don't have an account? Register now (free) for customized features, flight alerts, and more!